createdAt,value
2023-03-07T00:01:55.627Z,98422.39
2023-03-07T00:04:27.596Z,98419.97
2023-03-07T00:06:59.529Z,98422.31
2023-03-07T00:09:31.533Z,98430.23
2023-03-07T00:12:04.442Z,98423.59
2023-03-07T00:14:37.323Z,98430.66
2023-03-07T00:17:09.781Z,98436.81
2023-03-07T00:19:44.209Z,98434.43
2023-03-07T00:22:16.525Z,98425.58
2023-03-07T00:24:49.748Z,98425.22
2023-03-07T00:27:21.865Z,98420.15
2023-03-07T00:29:53.990Z,98428.88
2023-03-07T00:32:27.123Z,98434.09
2023-03-07T00:35:00.655Z,98439.95
2023-03-07T00:37:32.926Z,98428.95
2023-03-07T00:40:07.007Z,98421.30
2023-03-07T00:42:38.328Z,98428.98
2023-03-07T00:45:27.843Z,98433.91
2023-03-07T00:48:00.101Z,98426.37
2023-03-07T00:50:32.122Z,98427.97
2023-03-07T00:53:04.167Z,98432.86
2023-03-07T00:55:36.343Z,98431.00
2023-03-07T00:58:08.337Z,98420.63
2023-03-07T01:00:40.442Z,98422.38
2023-03-07T01:03:12.548Z,98417.50
2023-03-07T01:05:44.618Z,98417.80
2023-03-07T01:08:17.224Z,98418.16
2023-03-07T01:10:49.687Z,98418.48
2023-03-07T01:13:21.881Z,98413.63
2023-03-07T01:15:54.076Z,98413.91
2023-03-07T01:18:26.106Z,98415.04
2023-03-07T01:20:57.919Z,98408.42
2023-03-07T01:23:29.988Z,98418.88
2023-03-07T01:26:02.232Z,98418.05
2023-03-07T01:28:34.172Z,98427.37
2023-03-07T01:31:06.919Z,98413.53
2023-03-07T01:33:42.258Z,98416.86
2023-03-07T01:36:20.071Z,98423.70
2023-03-07T01:38:58.028Z,98430.50
2023-03-07T01:41:32.511Z,98426.21
2023-03-07T01:44:08.928Z,98422.89
2023-03-07T01:46:43.939Z,98420.38
2023-03-07T01:49:31.755Z,98420.52
2023-03-07T01:52:20.260Z,98422.95
2023-03-07T01:55:03.392Z,98427.30
2023-03-07T01:57:39.322Z,98428.09
2023-03-07T02:00:16.257Z,98417.64
2023-03-07T02:02:51.149Z,98421.63
2023-03-07T02:05:26.748Z,98421.38
2023-03-07T02:08:02.390Z,98434.81
2023-03-07T02:10:37.428Z,98428.78
2023-03-07T02:13:08.734Z,98438.09
2023-03-07T02:15:41.798Z,98422.41
2023-03-07T02:18:17.118Z,98435.52
2023-03-07T02:20:57.682Z,98432.23
2023-03-07T02:23:35.934Z,98435.70
2023-03-07T02:26:12.873Z,98430.56
2023-03-07T02:28:47.045Z,98428.73
2023-03-07T02:31:19.650Z,98434.81
2023-03-07T02:33:51.989Z,98428.73
2023-03-07T02:36:27.015Z,98421.88
2023-03-07T02:39:03.168Z,98423.63
2023-03-07T02:41:37.596Z,98421.91
2023-03-07T02:44:11.301Z,98423.38
2023-03-07T02:46:43.441Z,98426.06
2023-03-07T02:49:16.407Z,98417.41
2023-03-07T02:51:48.620Z,98413.95
2023-03-07T02:54:20.785Z,98414.84
2023-03-07T02:56:53.553Z,98413.06
2023-03-07T02:59:25.720Z,98412.02
2023-03-07T03:01:59.202Z,98418.88
2023-03-07T03:04:31.380Z,98413.73
2023-03-07T03:07:03.655Z,98419.05
2023-03-07T03:09:35.851Z,98422.56
2023-03-07T03:12:08.559Z,98422.67
2023-03-07T03:14:41.516Z,98428.02
2023-03-07T03:17:13.438Z,98426.45
2023-03-07T03:19:46.208Z,98426.45
2023-03-07T03:22:19.013Z,98423.98
2023-03-07T03:24:51.907Z,98420.59
2023-03-07T03:27:24.494Z,98418.05
2023-03-07T03:29:56.726Z,98417.02
2023-03-07T03:32:29.245Z,98424.67
2023-03-07T03:35:01.707Z,98428.98
2023-03-07T03:37:34.681Z,98434.06
2023-03-07T03:40:11.092Z,98435.56
2023-03-07T03:42:44.869Z,98430.42
2023-03-07T03:45:18.115Z,98435.45
2023-03-07T03:47:51.274Z,98436.42
2023-03-07T03:50:23.436Z,98436.38
2023-03-07T03:52:55.634Z,98430.67
2023-03-07T03:55:27.846Z,98433.34
2023-03-07T03:58:00.652Z,98434.44
2023-03-07T04:00:33.391Z,98425.87
2023-03-07T04:03:05.561Z,98435.36
2023-03-07T04:05:38.125Z,98438.04
2023-03-07T04:08:10.443Z,98435.47
2023-03-07T04:10:43.027Z,98436.29
2023-03-07T04:13:15.233Z,98445.72
2023-03-07T04:15:47.729Z,98444.83
2023-03-07T04:18:20.942Z,98452.37
2023-03-07T04:20:53.914Z,98437.80
2023-03-07T04:23:26.856Z,98438.41
2023-03-07T04:26:02.051Z,98455.63
2023-03-07T04:28:49.557Z,98452.95
2023-03-07T04:31:29.184Z,98449.62
2023-03-07T04:34:03.209Z,98454.63
2023-03-07T04:36:35.956Z,98448.45
2023-03-07T04:39:08.701Z,98455.38
2023-03-07T04:41:41.171Z,98450.95
2023-03-07T04:44:18.051Z,98456.06
2023-03-07T04:46:51.617Z,98460.28
2023-03-07T04:49:24.144Z,98456.75
2023-03-07T04:51:56.590Z,98457.50
2023-03-07T04:54:29.135Z,98457.36
2023-03-07T04:57:04.032Z,98465.82
2023-03-07T04:59:39.043Z,98457.62
2023-03-07T05:02:14.659Z,98466.13
2023-03-07T05:04:47.853Z,98462.73
2023-03-07T05:07:20.449Z,98462.73
2023-03-07T05:09:55.001Z,98471.06
2023-03-07T05:12:27.955Z,98474.41
2023-03-07T05:15:02.165Z,98473.41
2023-03-07T05:17:35.428Z,98475.75
2023-03-07T05:20:10.753Z,98478.88
2023-03-07T05:22:44.712Z,98480.48
2023-03-07T05:25:18.000Z,98482.08
2023-03-07T05:27:50.821Z,98490.52
2023-03-07T05:30:22.827Z,98498.95
2023-03-07T05:32:55.211Z,98483.37
2023-03-07T05:35:27.775Z,98498.78
2023-03-07T05:38:01.667Z,98495.89
2023-03-07T05:40:35.615Z,98504.08
2023-03-07T05:43:09.294Z,98501.50
2023-03-07T05:45:42.549Z,98501.34
2023-03-07T05:48:15.023Z,98499.30
2023-03-07T05:50:47.489Z,98501.38
2023-03-07T05:53:21.950Z,98503.21
2023-03-07T05:55:55.270Z,98493.42
2023-03-07T05:58:28.935Z,98497.33
2023-03-07T06:01:03.982Z,98498.66
2023-03-07T06:03:36.769Z,98498.27
2023-03-07T06:06:12.935Z,98493.59
2023-03-07T06:08:46.296Z,98494.19
2023-03-07T06:11:19.241Z,98494.91
2023-03-07T06:13:51.479Z,98503.34
2023-03-07T06:16:25.020Z,98496.55
2023-03-07T06:18:57.765Z,98511.40
2023-03-07T06:21:30.633Z,98504.75
2023-03-07T06:24:03.421Z,98510.08
2023-03-07T06:26:35.943Z,98515.97
2023-03-07T06:29:08.603Z,98527.52
2023-03-07T06:31:41.287Z,98519.77
2023-03-07T06:34:14.007Z,98518.97
2023-03-07T06:36:48.277Z,98525.28
2023-03-07T06:39:22.530Z,98523.00
2023-03-07T06:41:56.326Z,98522.56
2023-03-07T06:44:28.936Z,98517.95
2023-03-07T06:47:01.258Z,98526.52
2023-03-07T06:49:34.270Z,98529.21
2023-03-07T06:52:06.815Z,98535.19
2023-03-07T06:54:39.260Z,98537.83
2023-03-07T06:57:11.595Z,98545.02
2023-03-07T06:59:44.587Z,98540.30
2023-03-07T07:02:17.166Z,98534.16
2023-03-07T07:04:49.770Z,98546.86
2023-03-07T07:07:23.059Z,98553.31
2023-03-07T07:09:58.099Z,98550.25
2023-03-07T07:12:31.982Z,98548.66
2023-03-07T07:15:05.863Z,98551.47
2023-03-07T07:17:41.892Z,98539.00
2023-03-07T07:20:14.663Z,98539.00
2023-03-07T07:22:47.693Z,98535.53
2023-03-07T07:25:19.953Z,98541.69
2023-03-07T07:27:52.693Z,98538.84
2023-03-07T07:30:25.174Z,98536.80
2023-03-07T07:32:57.684Z,98535.53
2023-03-07T07:35:30.711Z,98526.39
2023-03-07T07:38:03.908Z,98540.41
2023-03-07T07:40:36.587Z,98544.02
2023-03-07T07:43:18.742Z,98539.17
2023-03-07T07:45:53.073Z,98537.73
2023-03-07T07:48:25.900Z,98549.32
2023-03-07T07:51:06.068Z,98549.58
2023-03-07T07:53:40.576Z,98545.13
2023-03-07T07:56:15.641Z,98549.12
2023-03-07T07:58:48.629Z,98545.48
2023-03-07T08:01:26.836Z,98544.15
2023-03-07T08:04:02.786Z,98539.48
2023-03-07T08:06:35.028Z,98542.47
2023-03-07T08:09:07.612Z,98537.91
2023-03-07T08:11:39.832Z,98532.95
2023-03-07T08:14:12.643Z,98541.27
2023-03-07T08:16:45.403Z,98536.46
2023-03-07T08:19:17.915Z,98541.86
2023-03-07T08:21:50.386Z,98543.90
2023-03-07T08:24:29.385Z,98539.52
2023-03-07T08:26:56.390Z,98544.50
2023-03-07T08:29:29.475Z,98544.50
2023-03-07T08:32:02.468Z,98542.66
2023-03-07T08:34:35.364Z,98531.40
2023-03-07T08:37:07.715Z,98532.11
2023-03-07T08:39:39.799Z,98540.61
2023-03-07T08:42:12.014Z,98535.34
2023-03-07T08:44:44.778Z,98532.00
2023-03-07T08:47:16.714Z,98528.50
2023-03-07T08:49:49.680Z,98529.35
2023-03-07T08:52:34.788Z,98534.53
2023-03-07T08:55:08.422Z,98531.40
2023-03-07T08:57:41.985Z,98524.16
2023-03-07T09:00:15.645Z,98527.34
2023-03-07T09:02:49.044Z,98519.69
2023-03-07T09:05:21.454Z,98518.84
2023-03-07T09:07:55.098Z,98517.10
2023-03-07T09:10:27.910Z,98510.19
2023-03-07T09:13:00.364Z,98511.59
2023-03-07T09:15:32.891Z,98521.58
2023-03-07T09:18:05.916Z,98518.92
2023-03-07T09:20:40.125Z,98513.63
2023-03-07T09:23:12.343Z,98517.95
2023-03-07T09:25:46.347Z,98517.25
2023-03-07T09:28:19.067Z,98514.33
2023-03-07T09:30:51.360Z,98515.77
2023-03-07T09:33:24.175Z,98519.85
2023-03-07T09:35:56.944Z,98510.86
2023-03-07T09:38:30.067Z,98512.30
2023-03-07T09:41:22.019Z,98506.04
2023-03-07T09:44:03.717Z,98516.36
2023-03-07T09:46:58.713Z,98513.55
2023-03-07T09:49:35.032Z,98520.46
2023-03-07T09:52:10.609Z,98514.02
2023-03-07T09:54:48.445Z,98504.50
2023-03-07T09:57:31.038Z,98502.42
2023-03-07T10:00:06.306Z,98498.59
2023-03-07T10:02:46.024Z,98507.64
2023-03-07T10:05:33.132Z,98507.09
2023-03-07T10:08:11.907Z,98507.09
2023-03-07T10:11:13.519Z,98498.38
2023-03-07T10:14:08.093Z,98498.94
2023-03-07T10:16:49.628Z,98495.45
2023-03-07T10:19:40.085Z,98497.47
2023-03-07T10:22:18.743Z,98488.45
2023-03-07T10:25:02.886Z,98491.92
2023-03-07T10:27:35.379Z,98487.05
2023-03-07T10:30:13.591Z,98489.32
2023-03-07T10:32:49.101Z,98482.73
2023-03-07T10:35:27.024Z,98488.11
2023-03-07T10:38:19.810Z,98483.77
2023-03-07T10:40:57.737Z,98480.45
2023-03-07T10:43:33.113Z,98482.23
2023-03-07T10:46:25.067Z,98473.59
2023-03-07T10:48:54.038Z,98470.45
2023-03-07T10:51:41.282Z,98461.73
2023-03-07T10:54:21.997Z,98460.73
2023-03-07T10:57:17.606Z,98457.62
2023-03-07T10:59:52.021Z,98462.09
2023-03-07T11:02:33.631Z,98463.13
2023-03-07T11:05:18.055Z,98448.08
2023-03-07T11:07:50.219Z,98453.53
2023-03-07T11:10:40.597Z,98443.84
2023-03-07T11:13:21.471Z,98437.55
2023-03-07T11:16:10.607Z,98438.23
2023-03-07T11:18:41.616Z,98443.27
2023-03-07T11:21:31.572Z,98438.63
2023-03-07T11:24:08.125Z,98444.27
2023-03-07T11:26:42.480Z,98434.62
2023-03-07T11:29:16.515Z,98441.56
2023-03-07T11:31:56.271Z,98442.06
2023-03-07T11:34:40.333Z,98443.69
2023-03-07T11:37:15.718Z,98439.81
2023-03-07T11:39:56.596Z,98445.03
2023-03-07T11:42:38.184Z,98444.61
2023-03-07T11:45:33.620Z,98445.52
2023-03-07T11:48:30.070Z,98439.73
2023-03-07T11:51:05.012Z,98444.93
2023-03-07T11:53:49.688Z,98440.15
2023-03-07T11:56:25.162Z,98435.88
2023-03-07T11:59:14.867Z,98439.05
2023-03-07T12:02:02.761Z,98437.89
2023-03-07T12:04:56.527Z,98442.24
2023-03-07T12:07:48.869Z,98437.80
2023-03-07T12:10:27.018Z,98442.75
2023-03-07T12:13:32.205Z,98440.58
2023-03-07T12:16:19.944Z,98438.87
2023-03-07T12:19:07.993Z,98435.84
2023-03-07T12:21:59.520Z,98435.25
2023-03-07T12:24:37.523Z,98428.45
2023-03-07T12:27:15.713Z,98425.77
2023-03-07T12:29:58.209Z,98432.64
2023-03-07T12:32:34.734Z,98431.56
2023-03-07T12:35:28.521Z,98426.70
2023-03-07T12:38:08.050Z,98432.57
2023-03-07T12:40:43.764Z,98425.92
2023-03-07T12:43:30.638Z,98424.25
2023-03-07T12:46:17.710Z,98424.02
2023-03-07T12:49:02.080Z,98428.03
2023-03-07T12:51:42.964Z,98420.49
2023-03-07T12:54:18.005Z,98426.52
2023-03-07T12:56:55.910Z,98418.90
2023-03-07T12:59:30.113Z,98421.22
2023-03-07T13:02:08.595Z,98419.27
2023-03-07T13:04:43.873Z,98414.70
2023-03-07T13:07:33.948Z,98417.34
2023-03-07T13:10:11.854Z,98418.81
2023-03-07T13:12:45.521Z,98415.77
2023-03-07T13:15:26.095Z,98412.70
2023-03-07T13:18:01.364Z,98410.12
2023-03-07T13:20:40.100Z,98419.27
2023-03-07T13:23:24.893Z,98417.98
2023-03-07T13:26:01.693Z,98414.13
2023-03-07T13:28:41.648Z,98414.58
2023-03-07T13:31:20.085Z,98418.30
2023-03-07T13:33:53.075Z,98420.42
2023-03-07T13:36:38.893Z,98416.53
2023-03-07T13:39:38.943Z,98417.66
2023-03-07T13:42:48.207Z,98419.77
2023-03-07T13:45:42.912Z,98426.92
2023-03-07T13:48:30.665Z,98427.69
2023-03-07T13:51:06.175Z,98436.02
2023-03-07T13:53:50.962Z,98441.05
2023-03-07T13:56:29.916Z,98436.47
2023-03-07T13:59:23.413Z,98444.59
2023-03-07T14:02:04.736Z,98439.78
2023-03-07T14:04:41.225Z,98433.05
2023-03-07T14:07:20.987Z,98428.84
2023-03-07T14:09:59.175Z,98428.84
2023-03-07T14:12:57.006Z,98423.95
2023-03-07T14:15:55.245Z,98426.78
2023-03-07T14:18:52.385Z,98433.91
2023-03-07T14:21:48.693Z,98425.51
2023-03-07T14:24:30.429Z,98418.89
2023-03-07T14:27:08.272Z,98419.17
2023-03-07T14:29:52.236Z,98434.88
2023-03-07T14:32:30.579Z,98435.09
2023-03-07T14:35:03.309Z,98435.20
2023-03-07T14:40:23.135Z,98433.38
2023-03-07T14:43:16.711Z,98434.91
2023-03-07T14:45:52.324Z,98432.53
2023-03-07T14:48:33.527Z,98434.41
2023-03-07T14:51:20.711Z,98445.78
2023-03-07T14:53:53.226Z,98437.39
2023-03-07T14:56:32.344Z,98446.13
2023-03-07T14:59:06.317Z,98441.98
2023-03-07T15:01:39.232Z,98441.43
2023-03-07T15:04:32.172Z,98440.84
2023-03-07T15:07:08.740Z,98443.37
2023-03-07T15:09:41.314Z,98443.56
2023-03-07T15:12:17.159Z,98450.47
2023-03-07T15:14:52.345Z,98448.05
2023-03-07T15:17:44.719Z,98454.18
2023-03-07T15:20:22.320Z,98454.32
2023-03-07T15:23:06.234Z,98451.84
2023-03-07T15:25:39.154Z,98457.02
2023-03-07T15:28:31.627Z,98451.05
2023-03-07T15:31:05.823Z,98458.14
2023-03-07T15:33:38.187Z,98463.50
2023-03-07T15:36:19.003Z,98456.87
2023-03-07T15:38:53.465Z,98455.34
2023-03-07T15:41:36.241Z,98457.38
2023-03-07T15:44:21.407Z,98463.55
2023-03-07T15:46:56.510Z,98463.79
2023-03-07T15:49:32.335Z,98451.75
2023-03-07T15:52:05.516Z,98456.09
2023-03-07T15:54:40.785Z,98467.25
2023-03-07T15:57:25.234Z,98462.22
2023-03-07T16:00:02.992Z,98469.16
2023-03-07T16:02:39.137Z,98460.64
2023-03-07T16:05:26.533Z,98464.09
2023-03-07T16:07:59.804Z,98472.75
2023-03-07T16:10:33.617Z,98467.69
2023-03-07T16:13:06.361Z,98468.64
2023-03-07T16:15:38.724Z,98464.44
2023-03-07T16:18:13.073Z,98462.80
2023-03-07T16:20:45.603Z,98464.67
2023-03-07T16:23:17.684Z,98462.95
2023-03-07T16:25:49.752Z,98462.95
2023-03-07T16:28:22.285Z,98466.44
2023-03-07T16:30:54.627Z,98469.83
2023-03-07T16:33:27.376Z,98474.14
2023-03-07T16:36:00.144Z,98470.60
2023-03-07T16:38:32.409Z,98476.58
2023-03-07T16:41:06.685Z,98471.45
2023-03-07T16:43:38.868Z,98468.02
2023-03-07T16:46:18.914Z,98472.66
2023-03-07T16:48:50.950Z,98464.77
2023-03-07T16:51:25.778Z,98472.66
2023-03-07T16:53:59.363Z,98459.93
2023-03-07T16:56:34.657Z,98469.45
2023-03-07T16:59:08.570Z,98458.41
2023-03-07T17:01:41.062Z,98459.41
2023-03-07T17:04:13.497Z,98467.20
2023-03-07T17:06:47.432Z,98469.87
2023-03-07T17:09:19.417Z,98463.94
2023-03-07T17:11:53.544Z,98472.59
2023-03-07T17:14:25.821Z,98463.98
2023-03-07T17:17:01.019Z,98471.78
2023-03-07T17:19:34.464Z,98472.68
2023-03-07T17:22:06.985Z,98470.95
2023-03-07T17:24:40.355Z,98476.17
2023-03-07T17:27:12.707Z,98475.45
2023-03-07T17:29:52.428Z,98479.93
2023-03-07T17:32:24.551Z,98473.19
2023-03-07T17:34:56.733Z,98474.99
2023-03-07T17:37:30.051Z,98468.97
2023-03-07T17:40:02.218Z,98467.25
2023-03-07T17:42:34.901Z,98465.40
2023-03-07T17:45:08.945Z,98467.13
2023-03-07T17:47:43.852Z,98473.95
2023-03-07T17:50:16.670Z,98468.70
2023-03-07T17:52:48.914Z,98475.53
2023-03-07T17:55:22.617Z,98477.21
2023-03-07T17:57:54.871Z,98479.79
2023-03-07T18:00:29.212Z,98476.26
2023-03-07T18:03:00.736Z,98481.42
2023-03-07T18:05:32.910Z,98476.47
2023-03-07T18:08:05.179Z,98472.73
2023-03-07T18:10:37.444Z,98465.12
2023-03-07T18:13:10.189Z,98467.89
2023-03-07T18:15:44.786Z,98468.93
2023-03-07T18:18:17.135Z,98469.97
2023-03-07T18:21:00.943Z,98470.92
2023-03-07T18:23:34.339Z,98473.59
2023-03-07T18:26:11.675Z,98477.29
2023-03-07T18:28:46.158Z,98477.29
2023-03-07T18:31:22.052Z,98477.29
2023-03-07T18:33:54.809Z,98475.70
2023-03-07T18:36:27.727Z,98477.47
2023-03-07T18:39:00.185Z,98477.56
2023-03-07T18:41:32.677Z,98475.97
2023-03-07T18:44:05.369Z,98478.77
2023-03-07T18:46:38.594Z,98478.94
2023-03-07T18:49:10.801Z,98484.60
2023-03-07T18:51:44.596Z,98491.03
2023-03-07T18:54:16.769Z,98482.85
2023-03-07T18:56:48.888Z,98487.72
2023-03-07T18:59:21.167Z,98487.04
2023-03-07T19:01:53.239Z,98481.34
2023-03-07T19:04:25.207Z,98474.86
2023-03-07T19:06:58.219Z,98480.34
2023-03-07T19:09:31.710Z,98478.97
2023-03-07T19:12:03.760Z,98480.05
2023-03-07T19:14:35.972Z,98481.91
2023-03-07T19:17:07.789Z,98487.23
2023-03-07T19:19:39.855Z,98495.09
2023-03-07T19:22:12.642Z,98489.30
2023-03-07T19:24:44.885Z,98496.36
2023-03-07T19:27:17.228Z,98504.25
2023-03-07T19:29:49.285Z,98494.03
2023-03-07T19:32:21.448Z,98492.45
2023-03-07T19:34:53.547Z,98507.91
2023-03-07T19:37:25.760Z,98507.08
2023-03-07T19:39:57.862Z,98505.41
2023-03-07T19:42:29.820Z,98506.27
2023-03-07T19:45:01.868Z,98498.68
2023-03-07T19:47:34.127Z,98501.35
2023-03-07T19:50:07.449Z,98499.73
2023-03-07T19:52:39.537Z,98506.66
2023-03-07T19:55:11.900Z,98505.03
2023-03-07T19:57:44.151Z,98502.44
2023-03-07T20:00:16.530Z,98520.33
2023-03-07T20:02:48.925Z,98511.77
2023-03-07T20:05:20.917Z,98521.95
2023-03-07T20:07:53.006Z,98527.91
2023-03-07T20:10:25.204Z,98535.47
2023-03-07T20:12:57.357Z,98537.05
2023-03-07T20:15:29.399Z,98541.23
2023-03-07T20:18:03.603Z,98541.27
2023-03-07T20:20:37.609Z,98533.59
2023-03-07T20:23:10.380Z,98539.30
2023-03-07T20:25:42.267Z,98539.66
2023-03-07T20:28:14.238Z,98544.92
2023-03-07T20:30:46.232Z,98543.34
2023-03-07T20:33:18.118Z,98544.27
2023-03-07T20:35:52.078Z,98541.72
2023-03-07T20:38:24.265Z,98545.24
2023-03-07T20:41:10.637Z,98541.05
2023-03-07T20:43:43.134Z,98541.97
2023-03-07T20:46:17.615Z,98548.09
2023-03-07T20:48:52.149Z,98553.35
2023-03-07T20:51:27.090Z,98557.78
2023-03-07T20:54:07.870Z,98556.08
2023-03-07T20:56:41.267Z,98555.22
2023-03-07T20:59:16.649Z,98556.08
2023-03-07T21:01:49.002Z,98561.21
2023-03-07T21:04:21.332Z,98562.98
2023-03-07T21:06:53.384Z,98567.21
2023-03-07T21:09:25.537Z,98566.41
2023-03-07T21:11:57.631Z,98575.06
2023-03-07T21:14:29.779Z,98575.16
2023-03-07T21:17:03.143Z,98579.46
2023-03-07T21:19:35.130Z,98578.66
2023-03-07T21:22:07.309Z,98584.57
2023-03-07T21:24:39.227Z,98577.78
2023-03-07T21:27:11.220Z,98585.54
2023-03-07T21:29:43.797Z,98594.19
2023-03-07T21:32:15.760Z,98585.63
2023-03-07T21:34:48.089Z,98590.82
2023-03-07T21:37:20.727Z,98591.64
2023-03-07T21:39:52.677Z,98600.27
2023-03-07T21:42:24.793Z,98609.77
2023-03-07T21:44:56.889Z,98608.96
2023-03-07T21:47:28.917Z,98608.16
2023-03-07T21:50:01.343Z,98611.61
2023-03-07T21:52:33.795Z,98609.13
2023-03-07T21:55:06.088Z,98617.81
2023-03-07T21:57:38.086Z,98621.21
2023-03-07T22:00:10.887Z,98620.38
2023-03-07T22:02:42.892Z,98618.72
2023-03-07T22:05:15.245Z,98624.77
2023-03-07T22:07:50.152Z,98635.94
2023-03-07T22:10:22.223Z,98635.22
2023-03-07T22:12:54.240Z,98636.83
2023-03-07T22:15:26.325Z,98645.30
2023-03-07T22:17:58.637Z,98642.77
2023-03-07T22:20:30.875Z,98637.63
2023-03-07T22:23:02.874Z,98643.69
2023-03-07T22:25:35.628Z,98642.14
2023-03-07T22:28:07.771Z,98650.74
2023-03-07T22:30:39.763Z,98647.36
2023-03-07T22:33:11.760Z,98646.56
2023-03-07T22:35:44.063Z,98654.38
2023-03-07T22:38:19.451Z,98656.13
2023-03-07T22:40:52.181Z,98656.17
2023-03-07T22:43:24.897Z,98664.61
2023-03-07T22:45:57.699Z,98662.05
2023-03-07T22:48:31.774Z,98668.05
2023-03-07T22:51:05.007Z,98658.67
2023-03-07T22:53:38.094Z,98656.20
2023-03-07T22:56:19.283Z,98666.63
2023-03-07T22:58:51.933Z,98666.63
2023-03-07T23:01:29.761Z,98668.38
2023-03-07T23:04:03.317Z,98671.80
2023-03-07T23:06:37.096Z,98671.73
2023-03-07T23:09:09.503Z,98678.52
2023-03-07T23:11:43.332Z,98680.73
2023-03-07T23:14:16.718Z,98677.45
2023-03-07T23:16:49.351Z,98671.53
2023-03-07T23:19:21.977Z,98674.98
2023-03-07T23:21:54.514Z,98675.83
2023-03-07T23:24:27.166Z,98677.49
2023-03-07T23:26:59.921Z,98679.23
2023-03-07T23:29:32.946Z,98675.02
2023-03-07T23:32:05.879Z,98666.55
2023-03-07T23:34:38.847Z,98674.30
2023-03-07T23:37:11.636Z,98679.45
2023-03-07T23:39:44.529Z,98681.25
2023-03-07T23:42:18.772Z,98688.95
2023-03-07T23:44:51.775Z,98678.69
2023-03-07T23:47:24.404Z,98682.94
2023-03-07T23:49:57.066Z,98679.50
2023-03-07T23:52:29.666Z,98686.34
2023-03-07T23:55:02.200Z,98683.05
2023-03-07T23:57:34.947Z,98683.16
